Time;durP1;ratioP1;P1;durP2;ratioP2;P2;SDS_P1;SDS_P2;PMS_P1;PMS_P2;Temp;Humidity;BMP_temperature;BMP_pressure;BME280_temperature;BME280_humidity;BME280_pressure;Samples;Min_cycle;Max_cycle;Signal;HPM_P1;HPM_P2
2023/08/19 00:00:15;;;;;;;;;16.00;15.00;;;;;-146.67;45.58;73252.31;5043531;28;61762;-76
2023/08/19 00:02:42;;;;;;;;;15.33;13.67;;;;;-146.67;45.76;73258.31;5024844;28;63902;-76
2023/08/19 00:05:08;;;;;;;;;18.00;14.00;;;;;-146.67;45.59;73262.31;5024973;28;61921;-76
2023/08/19 00:07:33;;;;;;;;;20.00;15.67;;;;;-146.67;45.62;73262.31;5025034;28;61968;-76
2023/08/19 00:10:02;;;;;;;;;15.00;14.00;;;;;-146.67;45.67;73268.28;5024802;28;61773;-76
2023/08/19 00:12:28;;;;;;;;;13.33;12.33;;;;;-146.67;45.85;73270.28;5024729;28;63564;-75
2023/08/19 00:14:56;;;;;;;;;14.67;14.67;;;;;-146.67;45.81;73286.25;5024952;28;61933;-76
2023/08/19 00:17:23;;;;;;;;;13.33;13.00;;;;;-146.67;46.00;73290.25;5025039;28;61992;-76
2023/08/19 00:19:49;;;;;;;;;15.33;14.33;;;;;-146.67;45.76;73290.25;5024025;28;62082;-76
2023/08/19 00:22:14;;;;;;;;;13.67;12.00;;;;;-146.67;46.21;73294.22;5024348;28;64720;-76
2023/08/19 00:24:39;;;;;;;;;13.00;12.00;;;;;-146.67;45.95;73300.22;5042668;28;61934;-76
2023/08/19 00:27:05;;;;;;;;;11.67;10.00;;;;;-146.67;46.05;73306.22;5042168;28;61863;-76
2023/08/19 00:29:30;;;;;;;;;15.00;13.00;;;;;-146.67;45.93;73306.22;5043182;28;62159;-76
2023/08/19 00:31:55;;;;;;;;;16.67;15.00;;;;;-146.67;46.18;73316.19;5042072;28;61800;-76
2023/08/19 00:34:21;;;;;;;;;14.67;14.67;;;;;-146.67;46.01;73314.19;5042665;28;61995;-76
2023/08/19 00:36:46;;;;;;;;;15.33;12.67;;;;;-146.67;46.27;73318.19;5042556;28;61845;-76
2023/08/19 00:39:12;;;;;;;;;14.00;12.33;;;;;-146.67;46.32;73324.16;5042950;28;61924;-76
2023/08/19 00:41:37;;;;;;;;;13.33;13.33;;;;;-146.67;46.37;73322.19;5041681;28;61860;-76
2023/08/19 00:44:03;;;;;;;;;12.67;12.67;;;;;-146.67;46.27;73330.16;5024713;28;61856;-76
2023/08/19 00:46:30;;;;;;;;;15.67;14.00;;;;;-146.67;46.07;73314.19;5042597;28;61789;-76
2023/08/19 00:48:57;;;;;;;;;15.67;13.33;;;;;-146.67;45.93;73326.16;5042129;28;61943;-76
2023/08/19 00:51:23;;;;;;;;;20.33;14.00;;;;;-146.67;45.89;73318.19;5023567;28;63889;-75
2023/08/19 00:53:50;;;;;;;;;13.33;12.67;;;;;-146.67;45.96;73322.19;5040464;28;62035;-76
2023/08/19 00:56:15;;;;;;;;;16.67;15.67;;;;;-146.67;45.71;73322.19;5024192;28;61920;-76
2023/08/19 00:58:41;;;;;;;;;12.00;10.00;;;;;-146.67;45.84;73324.16;5024648;28;62020;-76
2023/08/19 01:01:08;;;;;;;;;13.00;12.00;;;;;-146.67;45.73;73322.19;5041744;28;61853;-76
2023/08/19 01:03:33;;;;;;;;;12.33;11.67;;;;;-146.67;45.41;73330.16;5023575;28;61871;-76
2023/08/19 01:06:09;;;;;;;;;10.33;9.67;;;;;-146.67;45.30;73336.16;5042333;28;61836;-76
2023/08/19 01:08:51;;;;;;;;;13.67;12.67;;;;;-146.67;45.20;73332.16;5024435;28;61888;-76
2023/08/19 01:11:37;;;;;;;;;15.00;13.67;;;;;-146.67;45.03;73338.16;5041332;28;61811;-76
2023/08/19 01:14:24;;;;;;;;;9.00;9.00;;;;;-146.67;45.09;73334.16;5041397;28;61835;-76
2023/08/19 01:16:53;;;;;;;;;13.33;12.67;;;;;-146.67;45.10;73342.13;5041468;28;61856;-76
2023/08/19 01:19:30;;;;;;;;;19.33;11.67;;;;;-146.67;45.02;73346.13;5042045;28;61822;-76
2023/08/19 01:22:04;;;;;;;;;11.00;10.33;;;;;-146.67;44.63;73346.13;5041551;28;62188;-76
2023/08/19 01:24:40;;;;;;;;;14.00;12.00;;;;;-146.67;44.52;73354.13;5023989;28;61838;-76
2023/08/19 01:27:20;;;;;;;;;14.67;11.00;;;;;-146.67;44.67;73358.09;5041737;28;62091;-76
2023/08/19 01:29:46;;;;;;;;;13.00;10.67;;;;;-146.67;44.73;73366.09;5042307;28;62125;-75
2023/08/19 01:32:11;;;;;;;;;14.00;11.00;;;;;-146.67;44.77;73368.09;5040813;28;62009;-76
2023/08/19 01:34:37;;;;;;;;;11.33;11.33;;;;;-146.67;44.86;73376.06;5024245;28;61828;-76
2023/08/19 01:37:07;;;;;;;;;14.67;14.00;;;;;-146.67;44.74;73382.06;5041766;28;61803;-76
2023/08/19 01:39:36;;;;;;;;;15.67;13.67;;;;;-146.67;45.04;73396.03;5041032;28;61835;-75
2023/08/19 01:42:03;;;;;;;;;11.67;10.00;;;;;-146.67;44.83;73392.03;5040816;28;63229;-76
2023/08/19 01:44:28;;;;;;;;;10.00;10.00;;;;;-146.67;45.08;73392.03;5041861;28;61950;-76
2023/08/19 01:46:54;;;;;;;;;12.33;11.67;;;;;-146.67;45.26;73406.00;5041181;28;61892;-76
2023/08/19 01:49:19;;;;;;;;;11.00;11.00;;;;;-146.67;45.12;73406.00;5041492;28;61709;-75
2023/08/19 01:51:45;;;;;;;;;15.00;14.00;;;;;-146.67;45.03;73408.00;5041169;28;61954;-76
2023/08/19 01:54:10;;;;;;;;;13.67;13.33;;;;;-146.67;45.16;73414.00;5041038;28;62113;-76
2023/08/19 01:56:36;;;;;;;;;13.00;11.67;;;;;-146.67;45.02;73421.97;5041652;28;61943;-75
2023/08/19 01:59:02;;;;;;;;;9.67;9.67;;;;;-146.67;45.12;73429.97;5041670;28;62025;-76
2023/08/19 02:01:27;;;;;;;;;12.67;10.67;;;;;-146.67;45.12;73427.97;5040518;28;61743;-76
2023/08/19 02:03:52;;;;;;;;;14.67;10.67;;;;;-146.67;45.18;73435.94;5023563;28;61809;-76
2023/08/19 02:06:18;;;;;;;;;15.00;10.67;;;;;-146.67;45.02;73433.94;5041283;28;62024;-76
2023/08/19 02:08:43;;;;;;;;;14.33;11.67;;;;;-146.67;45.05;73447.91;5041831;28;62041;-75
2023/08/19 02:11:09;;;;;;;;;13.00;10.67;;;;;-146.67;44.90;73449.91;5022659;28;63646;-75
2023/08/19 02:13:34;;;;;;;;;11.67;11.00;;;;;-146.67;45.10;73445.91;5041432;28;61926;-75
2023/08/19 02:15:59;;;;;;;;;12.33;10.33;;;;;-146.67;44.96;73461.88;5041217;28;61847;-75
2023/08/19 02:18:26;;;;;;;;;7.67;7.67;;;;;-146.67;45.14;73461.88;5041441;28;61803;-76
2023/08/19 02:20:51;;;;;;;;;13.00;13.00;;;;;-146.67;44.95;73459.91;5040218;28;61910;-76
2023/08/19 02:23:17;;;;;;;;;14.00;12.33;;;;;-146.67;45.07;73473.88;5023386;28;61873;-76
2023/08/19 02:25:42;;;;;;;;;10.00;10.00;;;;;-146.67;45.12;73473.88;5023359;28;62089;-75
2023/08/19 02:28:08;;;;;;;;;13.67;13.33;;;;;-146.67;44.79;73477.84;5041620;28;61842;-76
2023/08/19 02:30:33;;;;;;;;;11.33;10.33;;;;;-146.67;45.06;73487.84;5040964;28;62150;-76
2023/08/19 02:33:08;;;;;;;;;11.33;11.33;;;;;-146.67;44.84;73493.81;5056824;28;61837;-76
2023/08/19 02:35:33;;;;;;;;;9.33;8.33;;;;;-146.67;44.95;73495.81;5056770;28;61950;-76
2023/08/19 02:37:59;;;;;;;;;14.33;11.00;;;;;-146.67;45.21;73499.81;5039848;28;61769;-76
2023/08/19 02:40:24;;;;;;;;;11.00;10.00;;;;;-146.67;44.95;73505.81;5040004;28;61877;-76
2023/08/19 02:42:50;;;;;;;;;10.67;9.33;;;;;-146.67;45.07;73505.81;5041249;28;61797;-76
2023/08/19 02:45:15;;;;;;;;;9.67;9.67;;;;;-146.67;44.77;73509.78;5040675;28;61707;-76
2023/08/19 02:47:40;;;;;;;;;12.00;12.00;;;;;-146.67;44.84;73507.78;5039634;28;61860;-76
2023/08/19 02:50:06;;;;;;;;;10.67;9.67;;;;;-146.67;44.89;73525.75;5056936;28;64740;-76
2023/08/19 02:52:32;;;;;;;;;10.00;10.00;;;;;-146.67;44.87;73539.72;5044032;28;61810;-76
2023/08/19 02:54:57;;;;;;;;;12.33;11.00;;;;;-146.67;45.06;73541.72;5059566;28;62531;-76
2023/08/19 02:57:22;;;;;;;;;10.33;10.33;;;;;-146.67;45.02;73541.72;5044464;28;62132;-76
2023/08/19 02:59:48;;;;;;;;;12.00;11.00;;;;;-146.67;44.93;73547.72;5043467;28;61843;-76
2023/08/19 03:02:13;;;;;;;;;16.67;11.33;;;;;-146.67;45.20;73559.69;5026322;28;61935;-76
2023/08/19 03:04:39;;;;;;;;;11.33;9.67;;;;;-146.67;45.21;73563.69;5026503;28;61889;-76
2023/08/19 03:07:04;;;;;;;;;10.00;9.67;;;;;-146.67;45.29;73563.69;5044244;28;61828;-76
2023/08/19 03:09:29;;;;;;;;;11.00;10.67;;;;;-146.67;45.12;73571.66;5043611;28;62790;-76
2023/08/19 03:11:55;;;;;;;;;15.00;13.00;;;;;-146.67;45.37;73575.66;5025729;28;61776;-76
2023/08/19 03:14:20;;;;;;;;;13.00;11.67;;;;;-146.67;45.29;73585.63;5043904;28;62297;-76
2023/08/19 03:16:46;;;;;;;;;13.00;13.00;;;;;-146.67;45.33;73593.63;5044345;28;61868;-76
2023/08/19 03:19:11;;;;;;;;;13.67;10.67;;;;;-146.67;45.39;73595.63;5025614;28;63656;-76
2023/08/19 03:21:36;;;;;;;;;13.00;10.67;;;;;-146.67;44.92;73595.63;5043392;28;61802;-76
2023/08/19 03:24:02;;;;;;;;;12.33;10.67;;;;;-146.67;45.20;73611.59;5044122;28;61838;-76
2023/08/19 03:26:27;;;;;;;;;10.67;9.33;;;;;-146.67;45.29;73617.56;5025481;28;61872;-76
2023/08/19 03:28:53;;;;;;;;;13.33;13.33;;;;;-146.67;45.41;73625.56;5025015;28;63932;-76
2023/08/19 03:31:18;;;;;;;;;11.33;11.33;;;;;-146.67;45.48;73637.53;5044186;28;61878;-75
2023/08/19 03:33:43;;;;;;;;;12.67;11.67;;;;;-146.67;100.00;57155.34;5027026;28;61764;-76
2023/08/19 03:36:09;;;;;;;;;15.33;12.00;;;;;-146.67;100.00;57155.34;5066364;28;8785;-76
2023/08/19 03:38:34;;;;;;;;;11.33;10.00;;;;;-146.67;100.00;57155.34;5084300;28;8804;-76
2023/08/19 03:41:00;;;;;;;;;8.67;7.67;;;;;-146.67;100.00;57155.34;5084518;28;8842;-76
2023/08/19 03:43:25;;;;;;;;;7.00;7.00;;;;;-146.67;100.00;57155.34;5066337;28;8801;-76
2023/08/19 03:45:50;;;;;;;;;11.00;9.67;;;;;-146.67;100.00;57155.34;5084242;28;8901;-76
2023/08/19 03:48:16;;;;;;;;;11.33;11.00;;;;;-146.67;100.00;57155.34;5066234;28;9844;-76
2023/08/19 03:50:41;;;;;;;;;12.33;11.00;;;;;-146.67;100.00;57155.34;5065739;28;8808;-76
2023/08/19 03:53:06;;;;;;;;;8.67;8.67;;;;;-146.67;100.00;57155.34;5065914;28;8817;-76
2023/08/19 03:55:32;;;;;;;;;8.67;7.67;;;;;-146.67;100.00;57155.34;5099429;28;8875;-76
2023/08/19 03:57:58;;;;;;;;;11.67;10.67;;;;;-146.67;100.00;57155.34;5084012;28;8765;-76
2023/08/19 04:00:23;;;;;;;;;8.67;8.67;;;;;-146.67;100.00;57155.34;5066088;28;9229;-76
2023/08/19 04:02:49;;;;;;;;;8.67;8.33;;;;;-146.67;100.00;57155.34;5083217;28;8827;-78
2023/08/19 04:05:15;;;;;;;;;8.67;7.00;;;;;-146.67;100.00;57155.34;5099621;28;8847;-76
2023/08/19 04:07:40;;;;;;;;;7.00;6.33;;;;;-146.67;100.00;57155.34;5065746;28;9876;-76
2023/08/19 04:10:07;;;;;;;;;7.00;7.00;;;;;-146.67;100.00;57155.34;5083823;28;8960;-76
2023/08/19 04:12:33;;;;;;;;;8.67;7.33;;;;;-146.67;100.00;57155.34;5065750;28;8741;-75
2023/08/19 04:14:58;;;;;;;;;9.67;9.67;;;;;-146.67;100.00;57155.34;5065625;28;9308;-76
2023/08/19 04:17:24;;;;;;;;;7.33;7.33;;;;;-146.67;100.00;57155.34;5083758;28;9535;-76
2023/08/19 04:19:50;;;;;;;;;5.33;5.33;;;;;-146.67;100.00;57155.34;5083325;28;8793;-76
2023/08/19 04:22:16;;;;;;;;;9.33;8.33;;;;;-146.67;100.00;57155.34;5083842;28;8875;-75
2023/08/19 04:24:41;;;;;;;;;10.33;8.33;;;;;-146.67;100.00;57155.34;5083959;28;9862;-76
2023/08/19 04:27:07;;;;;;;;;9.33;7.00;;;;;-146.67;100.00;57155.34;5064926;28;9930;-76
2023/08/19 04:29:33;;;;;;;;;12.00;8.00;;;;;-146.67;100.00;57155.34;5083744;28;8927;-76
2023/08/19 04:32:02;;;;;;;;;8.33;7.33;;;;;-146.67;100.00;57155.34;5065681;28;8808;-76
2023/08/19 04:34:29;;;;;;;;;11.67;7.33;;;;;-146.67;100.00;57155.34;5083941;28;8770;-76
2023/08/19 04:36:55;;;;;;;;;9.67;8.33;;;;;-146.67;100.00;57155.34;5083415;28;9167;-76
2023/08/19 04:39:21;;;;;;;;;9.00;7.33;;;;;-146.67;100.00;57155.34;5082248;28;9031;-76
2023/08/19 04:41:46;;;;;;;;;8.33;6.33;;;;;-146.67;100.00;57155.34;5082707;28;9125;-76
2023/08/19 04:44:12;;;;;;;;;8.00;7.33;;;;;-146.67;100.00;57155.34;5083639;28;8867;-76
2023/08/19 04:46:37;;;;;;;;;6.33;5.00;;;;;-146.67;100.00;57155.34;5083527;28;8821;-76
2023/08/19 04:49:03;;;;;;;;;9.33;8.00;;;;;-146.67;100.00;57155.34;5065143;28;8813;-76
2023/08/19 04:51:28;;;;;;;;;7.00;6.33;;;;;-146.67;100.00;57155.34;5064786;28;8796;-75
2023/08/19 04:53:54;;;;;;;;;8.00;4.33;;;;;-146.67;100.00;57155.34;5082755;28;8817;-76
2023/08/19 04:56:19;;;;;;;;;4.67;4.67;;;;;-146.67;100.00;57155.34;5082687;28;8784;-76
2023/08/19 04:58:45;;;;;;;;;6.67;6.67;;;;;-146.67;100.00;57155.34;5083381;28;8912;-76
2023/08/19 05:01:10;;;;;;;;;5.67;5.67;;;;;-146.67;100.00;57155.34;5083286;28;8819;-76
2023/08/19 05:03:36;;;;;;;;;5.33;4.33;;;;;-146.67;100.00;57155.34;5083152;28;8788;-76
2023/08/19 05:06:01;;;;;;;;;5.00;4.33;;;;;-146.67;100.00;57155.34;5082886;28;8821;-76
2023/08/19 05:08:26;;;;;;;;;8.33;4.33;;;;;-146.67;100.00;57155.34;5098708;28;8805;-76
2023/08/19 05:10:52;;;;;;;;;5.00;3.33;;;;;-146.67;100.00;57155.34;5097919;28;8907;-76
2023/08/19 05:13:18;;;;;;;;;5.33;5.33;;;;;-146.67;100.00;57155.34;5065007;28;8781;-76
2023/08/19 05:15:43;;;;;;;;;3.67;3.67;;;;;-146.67;100.00;57155.34;5082935;28;9651;-76
2023/08/19 05:18:08;;;;;;;;;3.00;2.67;;;;;-146.67;100.00;57155.34;5082627;28;11495;-76
2023/08/19 05:20:34;;;;;;;;;2.00;2.00;;;;;-146.67;100.00;57155.34;5082461;28;8789;-76
2023/08/19 05:22:59;;;;;;;;;5.00;3.67;;;;;-146.67;100.00;57155.34;5082570;28;8777;-76
2023/08/19 05:25:24;;;;;;;;;6.33;4.67;;;;;-146.67;100.00;57155.34;5082244;28;8809;-76
2023/08/19 05:27:50;;;;;;;;;4.67;4.67;;;;;-146.67;100.00;57155.34;5098248;28;8805;-76
2023/08/19 05:30:15;;;;;;;;;7.00;4.33;;;;;-146.67;100.00;57155.34;5064575;28;8796;-76
2023/08/19 05:32:41;;;;;;;;;2.67;2.67;;;;;-146.67;100.00;57155.34;5098280;28;8800;-76
2023/08/19 05:35:06;;;;;;;;;4.33;3.67;;;;;-146.67;100.00;57155.34;5064656;28;9963;-76
2023/08/19 05:37:32;;;;;;;;;2.67;2.67;;;;;-146.67;100.00;57155.34;5064361;28;8796;-76
2023/08/19 05:39:57;;;;;;;;;4.00;4.00;;;;;-146.67;100.00;57155.34;5082153;28;8811;-76
2023/08/19 05:42:22;;;;;;;;;4.67;3.00;;;;;-146.67;100.00;57155.34;5064309;28;8804;-76
2023/08/19 05:44:48;;;;;;;;;3.00;2.67;;;;;-146.67;100.00;57155.34;5082661;28;8773;-76
2023/08/19 05:47:15;;;;;;;;;2.33;2.33;;;;;-146.67;100.00;57155.34;5064342;28;8820;-76
2023/08/19 05:49:40;;;;;;;;;3.00;2.67;;;;;-146.67;100.00;57155.34;5097551;28;8744;-76
2023/08/19 05:52:05;;;;;;;;;3.33;3.33;;;;;-146.67;100.00;57155.34;5080417;28;9109;-76
2023/08/19 05:54:31;;;;;;;;;4.00;3.00;;;;;-146.67;100.00;57155.34;5043752;28;10445;-76
2023/08/19 05:56:56;;;;;;;;;2.00;2.00;;;;;-146.67;100.00;57155.34;5062062;28;8891;-76
2023/08/19 05:59:21;;;;;;;;;4.00;2.00;;;;;-146.67;100.00;57155.34;5062094;28;8816;-76
2023/08/19 06:01:47;;;;;;;;;2.00;2.00;;;;;-146.67;100.00;57155.34;5044101;28;8795;-76
2023/08/19 06:04:13;;;;;;;;;0.00;0.00;;;;;-146.67;100.00;57155.34;5062173;28;8789;-76
2023/08/19 06:06:38;;;;;;;;;3.00;3.00;;;;;-146.67;100.00;57155.34;5044177;28;8832;-76
2023/08/19 06:09:04;;;;;;;;;2.00;0.67;;;;;-146.67;100.00;57155.34;5043753;28;8775;-76
2023/08/19 06:11:29;;;;;;;;;2.00;1.33;;;;;-146.67;100.00;57155.34;5061981;28;8791;-76
2023/08/19 06:13:55;;;;;;;;;1.67;1.67;;;;;-146.67;100.00;57155.34;5062064;28;8868;-76
2023/08/19 06:16:20;;;;;;;;;2.00;2.00;;;;;-146.67;100.00;57155.34;5061903;28;8808;-76
2023/08/19 06:18:45;;;;;;;;;3.33;0.67;;;;;-146.67;100.00;57155.34;5044030;28;9834;-76
2023/08/19 06:21:11;;;;;;;;;1.67;1.67;;;;;-146.67;100.00;57155.34;5061620;28;8787;-76
2023/08/19 06:23:37;;;;;;;;;1.67;0.67;;;;;-146.67;100.00;57155.34;5061646;28;8781;-76
2023/08/19 06:26:03;;;;;;;;;1.67;1.67;;;;;-146.67;100.00;57155.34;5064427;28;11506;-76
2023/08/19 06:28:28;;;;;;;;;1.00;1.00;;;;;-146.67;100.00;57155.34;5065386;28;8800;-76
2023/08/19 06:30:54;;;;;;;;;2.00;1.00;;;;;-146.67;100.00;57155.34;5047493;28;8825;-76
2023/08/19 06:33:20;;;;;;;;;2.67;2.67;;;;;-146.67;100.00;57155.34;5065437;28;8760;-76
2023/08/19 06:35:48;;;;;;;;;2.00;2.00;;;;;-146.67;100.00;57155.34;5065769;28;8806;-76
2023/08/19 06:38:23;;;;;;;;;3.00;2.25;;;;;-146.67;100.00;57155.34;5065280;28;9713;-76
2023/08/19 06:41:00;;;;;;;;;1.33;1.33;;;;;-146.67;100.00;57155.34;5065040;28;8759;-76
2023/08/19 06:43:27;;;;;;;;;3.33;2.00;;;;;-146.67;100.00;57155.34;5065426;28;8919;-76
2023/08/19 06:45:55;;;;;;;;;3.00;2.00;;;;;-146.67;100.00;57155.34;5065366;28;8892;-76
2023/08/19 06:48:22;;;;;;;;;3.33;2.67;;;;;-146.67;100.00;57155.34;5064859;28;8934;-76
2023/08/19 06:50:48;;;;;;;;;3.00;1.67;;;;;-146.67;100.00;57155.34;5046682;28;8849;-76
2023/08/19 06:53:14;;;;;;;;;3.33;2.00;;;;;-146.67;100.00;57155.34;5064792;28;9034;-76
2023/08/19 06:55:45;;;;;;;;;2.67;2.67;;;;;-146.67;100.00;57155.34;5064807;28;8909;-76
2023/08/19 06:58:24;;;;;;;;;2.33;1.67;;;;;-146.67;100.00;57155.34;5046990;28;8747;-76
2023/08/19 07:00:53;;;;;;;;;5.00;2.33;;;;;-146.67;100.00;57155.34;5047313;28;8819;-76
2023/08/19 07:03:20;;;;;;;;;4.33;3.00;;;;;-146.67;100.00;57155.34;5046948;28;10115;-76
2023/08/19 07:05:49;;;;;;;;;2.00;2.00;;;;;-146.67;100.00;57155.34;5064534;28;8991;-76
2023/08/19 07:08:17;;;;;;;;;4.67;3.67;;;;;-146.67;100.00;57155.34;5064628;28;8929;-76
2023/08/19 07:10:45;;;;;;;;;4.67;3.00;;;;;-146.67;100.00;57155.34;5080114;28;8946;-76
2023/08/19 07:13:10;;;;;;;;;7.00;2.00;;;;;-146.67;100.00;57155.34;5065114;28;9184;-76
2023/08/19 07:15:40;;;;;;;;;6.33;4.00;;;;;-146.67;43.73;73920.97;5042214;28;61963;-75
2023/08/19 07:18:09;;;;;;;;;3.00;2.33;;;;;-146.67;43.68;73917.00;5006464;28;61979;-77
2023/08/19 07:20:36;;;;;;;;;5.00;4.67;;;;;-146.67;43.49;73918.97;5023528;28;62175;-76
2023/08/19 07:23:04;;;;;;;;;3.00;3.00;;;;;-146.67;43.58;73917.00;5023532;28;61754;-76
2023/08/19 07:25:30;;;;;;;;;3.67;3.67;;;;;-146.67;43.87;73913.00;5023778;28;61782;-76
2023/08/19 07:28:02;;;;;;;;;5.33;5.33;;;;;-146.67;43.56;73897.03;5006060;28;61775;-76
2023/08/19 07:30:28;;;;;;;;;8.67;5.33;;;;;-146.67;43.47;73869.09;5024413;28;62045;-76
2023/08/19 07:32:53;;;;;;;;;3.67;3.67;;;;;-146.67;43.33;73853.13;5005547;28;63986;-76
2023/08/19 07:35:19;;;;;;;;;4.00;4.00;;;;;-146.67;42.87;73849.13;5023701;28;61950;-76
2023/08/19 07:37:44;;;;;;;;;5.33;5.33;;;;;-146.67;43.19;73855.09;5004636;28;61814;-76
2023/08/19 07:40:11;;;;;;;;;3.00;3.00;;;;;-146.67;42.99;73871.06;5024005;28;61735;-76
2023/08/19 07:42:36;;;;;;;;;2.00;2.00;;;;;-146.67;43.05;73901.03;5023406;28;63278;-76
2023/08/19 07:45:02;;;;;;;;;5.00;3.67;;;;;-146.67;43.41;73922.97;5023668;28;61870;-76
2023/08/19 07:47:27;;;;;;;;;5.00;4.00;;;;;-146.67;43.38;73924.97;5006124;28;61919;-75
2023/08/19 07:49:53;;;;;;;;;4.00;3.00;;;;;-146.67;43.28;73926.97;5005019;28;62130;-75
2023/08/19 07:52:18;;;;;;;;;5.67;4.33;;;;;-146.67;43.45;73918.97;5008558;28;63602;-76
2023/08/19 07:54:43;;;;;;;;;4.00;3.00;;;;;-146.67;43.41;73940.94;5025320;28;61977;-76
2023/08/19 07:57:09;;;;;;;;;2.33;2.33;;;;;-146.67;43.45;73942.94;5025533;28;61923;-76
2023/08/19 07:59:34;;;;;;;;;7.00;4.33;;;;;-146.67;43.44;73944.94;5025618;28;61804;-76
2023/08/19 08:02:00;;;;;;;;;3.00;3.00;;;;;-146.67;43.26;73940.94;5025288;28;63544;-75
2023/08/19 08:04:25;;;;;;;;;4.67;3.67;;;;;-146.67;43.26;73930.97;5025247;28;61978;-76
2023/08/19 08:06:51;;;;;;;;;5.33;4.33;;;;;-146.67;43.44;73950.94;5025194;28;61949;-76
2023/08/19 08:09:17;;;;;;;;;3.00;1.33;;;;;-146.67;43.63;73952.91;5043639;28;61910;-76
2023/08/19 08:11:45;;;;;;;;;4.67;4.67;;;;;-146.67;43.70;73970.88;5042565;28;62972;-76
2023/08/19 08:14:10;;;;;;;;;2.00;2.00;;;;;-146.67;43.60;73986.84;5043535;28;61793;-75
2023/08/19 08:16:36;;;;;;;;;3.00;3.00;;;;;-146.67;43.42;74010.81;5025202;28;61787;-75
2023/08/19 08:19:01;;;;;;;;;5.00;2.67;;;;;-146.67;43.25;74042.75;5042982;28;61692;-75
2023/08/19 08:21:27;;;;;;;;;2.00;2.00;;;;;-146.67;43.47;74060.72;5024308;28;63589;-76
2023/08/19 08:23:54;;;;;;;;;1.33;1.33;;;;;-146.67;43.55;74098.66;5025074;28;62025;-76
2023/08/19 08:26:20;;;;;;;;;6.00;1.67;;;;;-146.67;43.83;74112.63;5043008;28;61902;-76
2023/08/19 08:28:45;;;;;;;;;1.67;1.67;;;;;-146.67;43.75;74112.63;5043172;28;61957;-75
2023/08/19 08:31:10;;;;;;;;;1.67;1.67;;;;;-146.67;43.90;74110.63;5042576;28;61836;-76
2023/08/19 08:33:36;;;;;;;;;3.67;2.67;;;;;-146.67;44.03;74072.69;5042809;28;61846;-76
2023/08/19 08:36:01;;;;;;;;;4.00;2.67;;;;;-146.67;43.63;74056.72;5043352;28;62448;-76
2023/08/19 08:38:27;;;;;;;;;4.00;4.00;;;;;-146.67;43.69;74036.75;5042701;28;61768;-75
2023/08/19 08:40:52;;;;;;;;;1.67;1.67;;;;;-146.67;43.80;74030.78;5042056;28;62941;-76
2023/08/19 08:43:18;;;;;;;;;5.33;4.00;;;;;-146.67;43.77;74042.75;5043230;28;61917;-76
2023/08/19 08:45:45;;;;;;;;;3.00;2.00;;;;;-146.67;43.33;74030.78;5024764;28;62067;-76
2023/08/19 08:48:11;;;;;;;;;1.00;1.00;;;;;-146.67;43.40;74060.72;5042390;28;61849;-75
2023/08/19 08:50:38;;;;;;;;;2.33;2.33;;;;;-146.67;43.50;74056.72;5041824;28;62866;-75
2023/08/19 08:53:03;;;;;;;;;3.33;3.33;;;;;-146.67;43.33;74070.69;5040214;28;61883;-75
2023/08/19 08:55:30;;;;;;;;;1.67;1.67;;;;;-146.67;43.61;74088.66;5042198;28;61725;-76
2023/08/19 08:57:56;;;;;;;;;1.00;0.67;;;;;-146.67;43.19;74080.69;5024901;28;61950;-75
2023/08/19 09:00:21;;;;;;;;;1.67;1.67;;;;;-146.67;43.74;74078.69;5040756;28;63906;-75
2023/08/19 09:02:48;;;;;;;;;3.33;1.67;;;;;-146.67;43.67;74080.69;5042301;28;61910;-75
2023/08/19 09:05:15;;;;;;;;;5.00;1.00;;;;;-146.67;44.02;74100.63;5042770;28;61938;-75
2023/08/19 09:07:41;;;;;;;;;3.00;3.00;;;;;-146.67;43.99;74120.59;5042461;28;61725;-76
2023/08/19 09:10:13;;;;;;;;;1.67;1.67;;;;;-146.67;44.98;74132.56;5041745;28;61809;-75
2023/08/19 09:12:42;;;;;;;;;4.67;1.67;;;;;-146.67;45.29;74136.56;5024216;28;61843;-76
2023/08/19 09:15:09;;;;;;;;;3.00;3.00;;;;;-146.67;45.92;74190.47;5024303;28;61944;-75
2023/08/19 09:17:35;;;;;;;;;2.67;2.67;;;;;-146.67;46.12;74224.41;5024192;28;62253;-75
2023/08/19 09:20:06;;;;;;;;;3.00;2.33;;;;;-146.67;47.24;74254.34;5040829;28;63284;-76
2023/08/19 09:22:31;;;;;;;;;3.00;2.00;;;;;-146.67;47.67;74262.34;5024340;28;61919;-75
2023/08/19 09:24:57;;;;;;;;;4.00;4.00;;;;;-146.67;48.10;74260.34;5042131;28;61926;-75
2023/08/19 09:27:26;;;;;;;;;4.00;3.00;;;;;-146.67;47.63;74264.34;5041862;28;61730;-75
2023/08/19 09:29:52;;;;;;;;;3.00;2.00;;;;;-146.67;49.11;74304.25;5041265;28;61909;-76
2023/08/19 09:32:31;;;;;;;;;4.67;3.00;;;;;-146.67;49.77;74330.22;5041902;28;62200;-75
2023/08/19 09:35:08;;;;;;;;;2.67;1.67;;;;;-146.67;52.77;74398.09;5042231;28;61783;-76
2023/08/19 09:37:35;;;;;;;;;4.33;2.67;;;;;-146.67;53.04;74424.03;5042096;28;61945;-76
2023/08/19 09:40:10;;;;;;;;;2.00;2.00;;;;;-146.67;52.21;74396.09;5023370;28;63751;-75
2023/08/19 09:42:37;;;;;;;;;3.00;3.00;;;;;-146.67;51.54;74384.13;5041734;28;61810;-75
2023/08/19 09:45:06;;;;;;;;;5.00;3.67;;;;;-146.67;50.35;74360.16;5041454;28;62005;-75
2023/08/19 09:47:45;;;;;;;;;6.00;4.00;;;;;-146.67;52.44;74410.06;5042009;28;61727;-75
2023/08/19 09:50:10;;;;;;;;;4.67;3.67;;;;;-146.67;54.05;74469.97;5022530;28;63103;-75
2023/08/19 09:52:37;;;;;;;;;3.67;3.67;;;;;-146.67;54.81;74525.88;5041612;28;61954;-75
2023/08/19 09:55:03;;;;;;;;;2.33;2.33;;;;;-146.67;54.34;74521.88;5041638;28;61977;-75
2023/08/19 09:57:33;;;;;;;;;2.00;2.00;;;;;-146.67;52.49;74497.91;5041539;28;61985;-75
2023/08/19 09:59:59;;;;;;;;;3.00;3.00;;;;;-146.67;54.18;74537.84;5055126;28;64946;-75
2023/08/19 10:02:24;;;;;;;;;2.67;1.67;;;;;-146.67;54.00;74527.84;5041552;28;61952;-75
2023/08/19 10:04:50;;;;;;;;;3.67;3.67;;;;;-146.67;53.85;74517.88;5041632;28;62175;-75
2023/08/19 10:07:20;;;;;;;;;6.67;4.00;;;;;-146.67;53.71;74503.91;5041614;28;61776;-76
2023/08/19 10:09:46;;;;;;;;;5.00;3.67;;;;;-146.67;54.43;74495.91;5041136;28;62817;-75
2023/08/19 10:12:15;;;;;;;;;4.67;4.00;;;;;-146.67;52.67;74450.00;5039709;28;61896;-75
2023/08/19 10:14:46;;;;;;;;;2.33;2.33;;;;;-146.67;51.46;74418.06;5041514;28;61886;-75
2023/08/19 10:17:12;;;;;;;;;4.00;4.00;;;;;-146.67;51.97;74432.03;5040175;28;61796;-75
2023/08/19 10:19:45;;;;;;;;;4.00;4.00;;;;;-146.67;52.49;74428.03;5038839;28;64158;-75
2023/08/19 10:22:14;;;;;;;;;2.67;2.67;;;;;-146.67;51.74;74380.13;5040003;28;61866;-75
2023/08/19 10:24:41;;;;;;;;;2.67;2.67;;;;;-146.67;51.07;74330.22;5041679;28;62132;-75
2023/08/19 10:27:15;;;;;;;;;4.00;3.00;;;;;-146.67;51.30;74304.25;5023221;28;61880;-75
2023/08/19 10:29:43;;;;;;;;;3.00;3.00;;;;;-146.67;49.59;74252.34;5040208;28;61988;-75
2023/08/19 10:32:28;;;;;;;;;4.00;3.00;;;;;-146.67;49.40;74210.44;5041227;28;61930;-75
2023/08/19 10:35:08;;;;;;;;;5.33;3.33;;;;;-146.67;48.87;74166.50;5039976;28;61783;-75
2023/08/19 10:38:00;;;;;;;;;5.00;2.67;;;;;-146.67;48.48;74120.59;5041220;28;61839;-76
2023/08/19 10:40:25;;;;;;;;;2.00;2.00;;;;;-146.67;47.35;74076.69;5019061;28;62493;-75
2023/08/19 10:42:58;;;;;;;;;2.00;2.00;;;;;-146.67;46.88;74056.72;5040974;28;61771;-75
2023/08/19 10:45:34;;;;;;;;;5.33;3.00;;;;;-146.67;47.64;74052.72;5022877;28;61784;-76
2023/08/19 10:48:00;;;;;;;;;6.67;3.33;;;;;-146.67;47.38;74018.78;5041271;28;61811;-75
2023/08/19 10:50:26;;;;;;;;;4.00;3.00;;;;;-146.67;46.82;73986.84;5039880;28;61853;-75
2023/08/19 10:53:01;;;;;;;;;4.00;2.67;;;;;-146.67;45.77;73952.91;5040775;28;61733;-76
2023/08/19 10:55:27;;;;;;;;;3.00;3.00;;;;;-146.67;44.45;73928.97;5039528;28;61857;-76
2023/08/19 10:57:56;;;;;;;;;5.33;2.67;;;;;-146.67;44.67;73926.97;5023266;28;62221;-76
2023/08/19 11:00:23;;;;;;;;;3.33;3.33;;;;;-146.67;44.83;73917.00;5022047;28;64531;-75
2023/08/19 11:02:49;;;;;;;;;3.00;3.00;;;;;-146.67;43.52;73855.09;5040969;28;61931;-76
2023/08/19 11:05:26;;;;;;;;;5.00;3.00;;;;;-146.67;43.24;73837.16;5041108;28;61777;-75
2023/08/19 11:07:52;;;;;;;;;2.33;2.33;;;;;-146.67;43.46;73847.13;5022919;28;62036;-75
2023/08/19 11:10:18;;;;;;;;;2.67;2.00;;;;;-146.67;41.76;73849.13;5040416;28;62015;-75